N6909T TUPJ-TJSJ
Flight info
| Callsign | N6909T |
|---|---|
| Flight time | N/A |
| Altitude | 4500 |
| Route | GPS |
| Aircraft | C208/M-G/L |
Departure
| Time | N/A |
|---|---|
| Airport | Terrance B. Lettsome International Airport (TUPJ) |
Arrival
| Time | 2026-05-03 20:25 |
|---|---|
| Airport | Luis Munoz Marin International Airport (TJSJ) |
| Time | Latitude | Longitude | Altitude | Speed | Heading |
|---|---|---|---|---|---|
| 2026-05-03 20:15 | 18.36852 | -65.58692 | 1520 ft | 172 kts | 271° |
| 2026-05-03 20:15 | 18.36925 | -65.59951 | 1520 ft | 172 kts | 271° |
| 2026-05-03 20:15 | 18.37002 | -65.61190 | 1519 ft | 172 kts | 271° |
| 2026-05-03 20:15 | 18.37102 | -65.62459 | 1518 ft | 172 kts | 275° |
| 2026-05-03 20:16 | 18.37264 | -65.63706 | 1520 ft | 172 kts | 276° |
| 2026-05-03 20:16 | 18.37434 | -65.64951 | 1520 ft | 172 kts | 277° |
| 2026-05-03 20:16 | 18.37606 | -65.66200 | 1520 ft | 172 kts | 277° |
| 2026-05-03 20:16 | 18.37821 | -65.67426 | 1511 ft | 173 kts | 289° |
| 2026-05-03 20:17 | 18.38490 | -65.68462 | 1533 ft | 171 kts | 312° |
| 2026-05-03 20:17 | 18.39302 | -65.69389 | 1524 ft | 172 kts | 315° |
| 2026-05-03 20:17 | 18.40121 | -65.70315 | 1521 ft | 172 kts | 314° |
| 2026-05-03 20:17 | 18.40926 | -65.71253 | 1520 ft | 172 kts | 313° |
| 2026-05-03 20:18 | 18.41712 | -65.72208 | 1520 ft | 172 kts | 311° |
| 2026-05-03 20:18 | 18.42478 | -65.73179 | 1520 ft | 173 kts | 310° |
| 2026-05-03 20:18 | 18.43224 | -65.74171 | 1520 ft | 173 kts | 309° |
| 2026-05-03 20:18 | 18.43945 | -65.75180 | 1520 ft | 173 kts | 307° |
| 2026-05-03 20:19 | 18.44537 | -65.76280 | 1523 ft | 173 kts | 291° |
| 2026-05-03 20:19 | 18.44873 | -65.77494 | 1523 ft | 172 kts | 280° |
| 2026-05-03 20:19 | 18.45065 | -65.78735 | 1522 ft | 173 kts | 277° |
| 2026-05-03 20:19 | 18.45236 | -65.79973 | 1520 ft | 173 kts | 277° |
| 2026-05-03 20:20 | 18.45408 | -65.81238 | 1520 ft | 173 kts | 277° |
| 2026-05-03 20:20 | 18.45576 | -65.82473 | 1520 ft | 172 kts | 277° |
| 2026-05-03 20:20 | 18.45747 | -65.83743 | 1521 ft | 172 kts | 279° |
| 2026-05-03 20:20 | 18.45871 | -65.84973 | 1502 ft | 171 kts | 277° |
| 2026-05-03 20:21 | 18.45987 | -65.86209 | 1497 ft | 167 kts | 278° |
| 2026-05-03 20:21 | 18.46052 | -65.87421 | 1444 ft | 164 kts | 274° |
| 2026-05-03 20:21 | 18.46038 | -65.88607 | 1430 ft | 160 kts | 272° |
| 2026-05-03 20:21 | 18.46012 | -65.89771 | 1428 ft | 158 kts | 272° |
| 2026-05-03 20:22 | 18.45998 | -65.90909 | 1425 ft | 151 kts | 275° |
| 2026-05-03 20:22 | 18.46085 | -65.91986 | 1424 ft | 144 kts | 281° |
| 2026-05-03 20:22 | 18.46181 | -65.93030 | 1426 ft | 142 kts | 277° |
| 2026-05-03 20:22 | 18.46230 | -65.93981 | 1452 ft | 113 kts | 277° |
| 2026-05-03 20:23 | 18.46178 | -65.94694 | 1389 ft | 86 kts | 268° |
| 2026-05-03 20:23 | 18.46077 | -65.95306 | 1170 ft | 84 kts | 265° |
| 2026-05-03 20:23 | 18.45940 | -65.95902 | 976 ft | 83 kts | 263° |
| 2026-05-03 20:23 | 18.45788 | -65.96484 | 797 ft | 83 kts | 257° |
| 2026-05-03 20:24 | 18.45599 | -65.97084 | 630 ft | 90 kts | 250° |
| 2026-05-03 20:24 | 18.45397 | -65.97707 | 505 ft | 91 kts | 250° |
| 2026-05-03 20:24 | 18.45132 | -65.98326 | 290 ft | 93 kts | 250° |
| 2026-05-03 20:24 | 18.44897 | -65.98945 | 50 ft | 86 kts | 251° |
| 2026-05-03 20:25 | 18.44696 | -65.99452 | 15 ft | 66 kts | 250° |
| 2026-05-03 20:25 | 18.44540 | -65.99866 | 15 ft | 57 kts | 246° |
| 2026-05-03 20:25 | 18.44395 | -66.00225 | 15 ft | 46 kts | 240° |
| 2026-05-03 20:25 | 18.44264 | -66.00409 | 15 ft | 23 kts | 221° |
| 2026-05-03 20:26 | 18.44188 | -66.00478 | 15 ft | 0 kts | 218° |
| 2026-05-03 20:30 | 18.44187 | -66.00479 | 15 ft | 1 kts | 218° |
| 2026-05-03 20:31 | 18.44177 | -66.00487 | 15 ft | 3 kts | 218° |
| 2026-05-03 20:31 | 18.44147 | -66.00494 | 15 ft | 6 kts | 149° |
| 2026-05-03 20:31 | 18.44133 | -66.00412 | 15 ft | 16 kts | 76° |
| 2026-05-03 20:31 | 18.44172 | -66.00285 | 15 ft | 20 kts | 67° |
| 2026-05-03 20:32 | 18.44137 | -66.00183 | 15 ft | 19 kts | 155° |
| 2026-05-03 20:32 | 18.43997 | -66.00118 | 15 ft | 25 kts | 156° |
| 2026-05-03 20:32 | 18.43849 | -66.00051 | 15 ft | 16 kts | 155° |
| 2026-05-03 20:32 | 18.43840 | -65.99985 | 15 ft | 8 kts | 351° |
| 2026-05-03 20:33 | 18.43849 | -66.00001 | 15 ft | 0 kts | 251° |